Time;durP1;ratioP1;P1;durP2;ratioP2;P2;SDS_P1;SDS_P2;PMS_P1;PMS_P2;Temp;Humidity;BMP_temperature;BMP_pressure;BME280_temperature;BME280_humidity;BME280_pressure;Samples;Min_cycle;Max_cycle;Signal;HPM_P1;HPM_P2
2021/10/25 00:00:41;;;;;;;10.25;6.45;;;;;;;9.37;66.75;101251.22;5049664;28;20090;-49
2021/10/25 00:03:07;;;;;;;10.20;6.38;;;;;;;9.12;67.57;101256.41;5050307;28;20042;-49
2021/10/25 00:05:33;;;;;;;12.52;6.10;;;;;;;8.92;68.34;101245.13;5049850;28;20021;-48
2021/10/25 00:07:58;;;;;;;10.07;6.35;;;;;;;8.83;68.70;101243.41;5050047;28;20021;-48
2021/10/25 00:10:24;;;;;;;11.85;6.78;;;;;;;8.83;69.18;101247.91;5049791;28;20393;-51
2021/10/25 00:12:50;;;;;;;13.35;6.50;;;;;;;8.96;68.02;101249.13;5049541;28;20106;-49
2021/10/25 00:15:16;;;;;;;11.80;6.32;;;;;;;8.82;68.74;101252.38;5049428;28;20040;-48
2021/10/25 00:17:41;;;;;;;11.85;6.97;;;;;;;8.73;68.97;101243.50;5049840;28;20094;-50
2021/10/25 00:20:08;;;;;;;9.50;6.22;;;;;;;8.64;69.04;101249.75;5049988;28;20029;-49
2021/10/25 00:22:33;;;;;;;9.85;6.35;;;;;;;8.64;69.25;101248.91;5049943;28;20048;-49
2021/10/25 00:24:58;;;;;;;11.30;6.43;;;;;;;8.73;69.09;101246.16;5049468;28;20436;-50
2021/10/25 00:27:24;;;;;;;10.77;6.20;;;;;;;8.56;69.06;101242.56;5049095;28;20100;-50
2021/10/25 00:29:50;;;;;;;13.15;6.10;;;;;;;8.69;69.14;101244.00;5049118;28;20055;-48
2021/10/25 00:32:15;;;;;;;11.15;6.60;;;;;;;8.78;68.58;101245.72;5049369;28;20669;-49
2021/10/25 00:34:42;;;;;;;10.70;6.53;;;;;;;8.46;69.04;101225.06;5049734;28;20045;-49
2021/10/25 00:37:08;;;;;;;10.88;6.45;;;;;;;8.59;68.76;101223.69;5049803;28;20025;-49
2021/10/25 00:39:33;;;;;;;11.57;6.55;;;;;;;8.51;70.09;101247.50;5050038;28;20036;-50
2021/10/25 00:42:00;;;;;;;9.93;6.05;;;;;;;8.55;69.53;101248.03;5049568;28;20036;-48
2021/10/25 00:44:26;;;;;;;10.57;6.05;;;;;;;8.57;69.74;101252.19;5049627;28;20070;-49
2021/10/25 00:46:52;;;;;;;11.15;6.90;;;;;;;8.06;71.13;101258.97;5050019;28;20104;-48
2021/10/25 00:49:17;;;;;;;10.45;6.63;;;;;;;8.19;71.21;101255.97;5049854;28;20330;-49
2021/10/25 00:51:45;;;;;;;12.95;6.82;;;;;;;8.23;71.01;101254.69;5049941;28;20021;-50
2021/10/25 00:54:10;;;;;;;10.32;6.88;;;;;;;8.36;70.79;101254.31;5031993;28;20025;-49
2021/10/25 00:56:36;;;;;;;11.10;6.70;;;;;;;8.38;70.72;101257.63;5048620;28;20021;-48
2021/10/25 00:59:01;;;;;;;11.80;6.72;;;;;;;8.45;69.73;101265.84;5048077;28;20028;-47
2021/10/25 01:01:27;;;;;;;11.10;6.47;;;;;;;8.60;69.79;101270.47;5031500;28;20390;-50
2021/10/25 01:03:52;;;;;;;11.60;6.80;;;;;;;8.24;71.71;101264.28;5049243;28;20029;-48
2021/10/25 01:06:18;;;;;;;10.88;6.68;;;;;;;8.40;70.38;101268.94;5049354;28;20169;-51
2021/10/25 01:08:43;;;;;;;12.38;6.50;;;;;;;8.53;70.17;101268.56;5049492;28;20094;-50
2021/10/25 01:11:09;;;;;;;11.23;6.85;;;;;;;8.39;70.50;101261.94;5031471;28;20024;-49
2021/10/25 01:13:34;;;;;;;10.13;6.88;;;;;;;8.51;69.83;101263.44;5049883;28;20025;-48
2021/10/25 01:16:02;;;;;;;10.75;6.47;;;;;;;8.27;71.07;101258.69;5052507;28;20017;-48
2021/10/25 01:18:27;;;;;;;13.10;7.05;;;;;;;8.34;71.07;101264.22;5053912;28;20032;-51
2021/10/25 01:20:53;;;;;;;11.38;6.50;;;;;;;8.32;70.83;101264.38;5054010;28;20484;-48
2021/10/25 01:23:19;;;;;;;12.25;6.65;;;;;;;8.40;70.86;101266.28;5053443;28;20021;-48
2021/10/25 01:25:45;;;;;;;13.75;6.85;;;;;;;8.23;70.88;101273.25;5053517;28;20566;-50
2021/10/25 01:28:11;;;;;;;14.20;6.85;;;;;;;7.91;72.49;101269.25;5052079;28;20114;-50
2021/10/25 01:30:36;;;;;;;10.95;7.07;;;;;;;7.75;72.96;101271.72;5053500;28;20629;-51
2021/10/25 01:33:02;;;;;;;11.50;6.97;;;;;;;7.96;72.51;101277.59;5052953;28;20178;-49
2021/10/25 01:35:27;;;;;;;12.57;6.93;;;;;;;7.97;71.71;101273.97;5053530;28;20083;-49
2021/10/25 01:37:52;;;;;;;12.15;6.57;;;;;;;7.48;73.60;101268.06;5053296;28;20025;-48
2021/10/25 01:40:18;;;;;;;12.43;6.97;;;;;;;7.91;72.35;101269.25;5053436;28;20090;-48
2021/10/25 01:42:43;;;;;;;11.57;7.10;;;;;;;7.81;72.87;101261.38;5053043;28;20397;-49
2021/10/25 01:45:09;;;;;;;11.68;6.93;;;;;;;7.94;72.15;101274.28;5052826;28;20021;-51
2021/10/25 01:47:35;;;;;;;12.93;6.55;;;;;;;7.95;72.38;101269.78;5064506;28;20094;-49
2021/10/25 01:50:00;;;;;;;14.10;7.53;;;;;;;8.17;71.31;101271.19;5073143;28;20106;-47
2021/10/25 01:52:26;;;;;;;14.88;7.32;;;;;;;8.26;70.98;101277.41;5073144;28;20460;-49
2021/10/25 01:54:51;;;;;;;13.60;7.38;;;;;;;7.88;72.46;101280.19;5073287;28;20039;-51
2021/10/25 01:57:17;;;;;;;13.10;7.18;;;;;;;7.95;72.43;101269.78;5072805;28;20029;-48
2021/10/25 01:59:42;;;;;;;15.52;7.68;;;;;;;8.00;72.10;101276.31;5073046;28;20051;-48
2021/10/25 02:02:08;;;;;;;12.45;7.32;;;;;;;7.80;73.12;101267.63;5073013;28;20405;-50
2021/10/25 02:04:34;;;;;;;10.07;6.45;;;;;;;7.87;72.58;101273.19;5073055;28;20032;-48
2021/10/25 02:06:59;;;;;;;11.90;7.10;;;;;;;7.79;72.92;101262.50;5073086;28;20024;-50
2021/10/25 02:09:25;;;;;;;12.18;7.05;;;;;;;7.83;73.30;101271.81;5073058;28;20113;-52
2021/10/25 02:11:50;;;;;;;11.45;7.97;;;;;;;7.81;73.09;101266.66;5072707;28;20450;-51
2021/10/25 02:14:16;;;;;;;11.77;7.63;;;;;;;7.86;72.72;101271.50;5072780;28;20025;-48
2021/10/25 02:16:41;;;;;;;14.18;8.18;;;;;;;7.87;72.13;101272.38;5072706;28;20020;-47
2021/10/25 02:19:07;;;;;;;11.00;7.55;;;;;;;7.89;71.91;101279.19;5072712;28;20032;-48
2021/10/25 02:21:33;;;;;;;12.73;7.80;;;;;;;7.57;73.52;101280.44;5072394;28;20032;-49
2021/10/25 02:23:58;;;;;;;11.38;6.93;;;;;;;7.49;74.16;101271.56;5072190;28;20430;-48
2021/10/25 02:26:24;;;;;;;11.70;7.32;;;;;;;7.41;74.53;101283.72;5072625;28;20455;-51
2021/10/25 02:28:49;;;;;;;11.52;7.03;;;;;;;7.66;74.18;101286.69;5072334;28;20048;-51
2021/10/25 02:31:15;;;;;;;14.25;7.20;;;;;;;7.85;72.31;101290.25;5072605;28;20074;-50
2021/10/25 02:33:41;;;;;;;11.75;7.13;;;;;;;7.52;73.94;101295.09;5072255;28;20534;-50
2021/10/25 02:36:07;;;;;;;14.98;7.88;;;;;;;7.23;74.94;101290.75;5072290;28;20465;-51
2021/10/25 02:38:36;;;;;;;14.68;8.10;;;;;;;7.43;74.74;101287.06;5072299;28;20032;-50
2021/10/25 02:41:03;;;;;;;13.10;8.02;;;;;;;7.34;74.13;101293.22;5072593;28;20139;-49
2021/10/25 02:43:29;;;;;;;13.25;8.40;;;;;;;7.16;75.08;101293.16;5072170;28;20043;-48
2021/10/25 02:45:54;;;;;;;14.82;8.18;;;;;;;7.51;74.18;101294.28;5055777;28;20061;-51
2021/10/25 02:48:20;;;;;;;12.70;8.10;;;;;;;7.71;73.42;101291.53;5069707;28;20020;-51
2021/10/25 02:50:46;;;;;;;15.20;8.38;;;;;;;7.61;72.75;101289.75;5072098;28;20031;-50
2021/10/25 02:53:12;;;;;;;16.83;8.40;;;;;;;7.41;74.14;101278.44;5072269;28;20032;-49
2021/10/25 02:55:38;;;;;;;16.67;8.50;;;;;;;7.36;74.43;101285.97;5072236;28;20024;-48
2021/10/25 02:58:04;;;;;;;12.80;7.95;;;;;;;7.43;74.10;101287.06;5071860;28;20090;-49
2021/10/25 03:00:33;;;;;;;13.57;7.85;;;;;;;7.38;74.46;101281.34;5068782;28;20038;-47
2021/10/25 03:02:58;;;;;;;15.00;8.70;;;;;;;7.52;74.63;101289.81;5052075;28;20032;-50
2021/10/25 03:05:24;;;;;;;13.23;7.80;;;;;;;7.66;73.15;101289.34;5052185;28;20615;-50
2021/10/25 03:07:49;;;;;;;54.10;29.33;;;;;;;7.54;73.99;101287.84;5052014;28;20025;-48
2021/10/25 03:10:15;;;;;;;52.30;26.77;;;;;;;7.46;73.77;101282.44;5051971;28;20029;-49
2021/10/25 03:12:41;;;;;;;95.40;43.47;;;;;;;7.42;74.08;101285.41;5051880;28;20150;-48
2021/10/25 03:15:07;;;;;;;41.53;21.92;;;;;;;7.34;74.49;101287.09;5051304;28;20028;-50
2021/10/25 03:17:32;;;;;;;12.70;8.55;;;;;;;7.29;75.31;101282.25;5051666;28;20021;-51
2021/10/25 03:19:58;;;;;;;16.15;8.43;;;;;;;7.25;74.59;101294.09;5051266;28;20393;-50
2021/10/25 03:22:25;;;;;;;16.98;8.98;;;;;;;7.33;74.68;101290.72;5051205;28;20417;-47
2021/10/25 03:24:50;;;;;;;11.95;8.48;;;;;;;7.11;75.55;101292.72;5051538;28;20381;-49
2021/10/25 03:27:16;;;;;;;15.43;9.07;;;;;;;7.07;76.37;101286.06;5051268;28;20473;-50
2021/10/25 03:29:41;;;;;;;16.40;9.80;;;;;;;6.90;77.29;101292.91;5051085;28;20033;-51
2021/10/25 03:32:07;;;;;;;16.58;9.48;;;;;;;7.27;75.42;101293.94;5051419;28;20060;-50
2021/10/25 03:34:32;;;;;;;17.20;8.77;;;;;;;6.91;75.34;101296.38;5051154;28;20029;-47
2021/10/25 03:36:58;;;;;;;17.35;9.88;;;;;;;7.08;75.02;101294.81;5049887;28;20024;-37
2021/10/25 03:39:26;;;;;;;20.45;9.13;;;;;;;6.80;76.29;101292.09;5051062;28;20037;-50
2021/10/25 03:41:53;;;;;;;18.73;10.48;;;;;;;7.05;75.25;101294.13;5050979;28;20029;-47
2021/10/25 03:44:26;;;;;;;19.98;9.63;;;;;;;6.98;75.62;101297.50;5050161;28;20025;-47
2021/10/25 03:47:07;;;;;;;20.77;9.18;;;;;;;6.92;75.54;101301.53;5056420;28;20021;-50
2021/10/25 03:49:40;;;;;;;16.92;9.70;;;;;;;7.12;74.69;101288.25;5070785;28;20033;-48
2021/10/25 03:52:15;;;;;;;26.55;9.15;;;;;;;7.06;74.22;101287.03;5070898;28;20059;-49
2021/10/25 03:54:59;;;;;;;27.98;9.48;;;;;;;7.25;73.74;101286.13;5052349;28;20116;-51
2021/10/25 04:13:51;;;;;;;27.73;11.13;;;;;;;6.82;74.53;101298.09;5029795;28;20039;-49
2021/10/25 04:29:38;;;;;;;24.77;8.93;;;;;;;7.59;73.20;101289.06;5043377;28;20029;-48
2021/10/25 04:32:07;;;;;;;25.05;9.35;;;;;;;7.11;72.98;101295.38;5029712;28;20057;-47
2021/10/25 04:34:33;;;;;;;22.55;9.52;;;;;;;6.59;75.77;101295.72;5029334;28;20029;-51
2021/10/25 04:36:59;;;;;;;26.42;10.15;;;;;;;6.93;74.81;101303.22;5045070;28;20028;-50
2021/10/25 04:39:24;;;;;;;28.38;10.48;;;;;;;6.70;75.32;101297.41;5041348;28;20032;-51
2021/10/25 04:41:50;;;;;;;53.53;12.77;;;;;;;6.80;75.44;101305.34;5048255;28;20033;-49
2021/10/25 04:44:15;;;;;;;78.75;14.63;;;;;;;6.93;74.57;101297.06;5048282;28;20021;-48
2021/10/25 04:46:41;;;;;;;44.80;14.40;;;;;;;6.90;74.80;101300.03;5048705;28;20044;-47
2021/10/25 04:49:06;;;;;;;55.85;14.40;;;;;;;6.46;76.46;101305.75;5052489;28;20052;-48
2021/10/25 04:51:34;;;;;;;70.13;15.95;;;;;;;6.63;75.51;101305.06;5053365;28;20489;-47
2021/10/25 04:54:00;;;;;;;61.47;13.52;;;;;;;6.50;75.68;101309.78;5050690;28;20027;-48
2021/10/25 04:56:26;;;;;;;45.83;13.48;;;;;;;6.33;76.86;101305.19;5048894;28;20048;-48
2021/10/25 04:58:51;;;;;;;45.17;12.75;;;;;;;6.28;76.56;101310.88;5050460;28;20017;-48
2021/10/25 05:01:17;;;;;;;50.35;16.90;;;;;;;6.32;77.35;101309.66;5050479;28;20103;-51
2021/10/25 05:03:42;;;;;;;56.85;15.43;;;;;;;6.77;75.59;101310.91;5050506;28;20098;-48
2021/10/25 05:06:15;;;;;;;53.13;15.30;;;;;;;6.86;74.38;101315.34;5044678;28;20044;-51
2021/10/25 05:08:40;;;;;;;26.83;10.18;;;;;;;6.86;74.79;101328.59;5031468;28;20515;-48
2021/10/25 05:11:06;;;;;;;27.30;12.32;;;;;;;7.11;72.95;101321.03;5030977;28;20037;-51
2021/10/25 05:13:31;;;;;;;39.30;11.23;;;;;;;6.57;75.58;101318.84;5029745;28;20032;-50
2021/10/25 05:15:57;;;;;;;39.22;12.20;;;;;;;6.72;75.67;101323.69;5031527;28;20040;-49
2021/10/25 05:18:22;;;;;;;32.28;11.95;;;;;;;6.77;75.52;101324.94;5032337;28;20041;-52
2021/10/25 05:20:48;;;;;;;30.25;10.52;;;;;;;7.05;75.07;101328.56;5033267;28;20021;-49
2021/10/25 05:23:13;;;;;;;25.83;9.98;;;;;;;7.43;73.77;101333.91;5037216;28;20033;-51
2021/10/25 05:25:40;;;;;;;38.08;11.00;;;;;;;7.34;74.29;101332.94;5053220;28;20075;-52
2021/10/25 05:28:06;;;;;;;26.55;10.38;;;;;;;7.37;73.81;101335.31;5052904;28;20033;-51
2021/10/25 05:30:32;;;;;;;33.78;10.40;;;;;;;7.60;72.91;101333.16;5052582;28;20033;-51
2021/10/25 05:32:57;;;;;;;20.58;9.57;;;;;;;8.06;70.84;101343.81;5052808;28;20071;-51
2021/10/25 05:35:24;;;;;;;17.67;9.32;;;;;;;8.13;70.95;101344.06;5052574;28;20032;-49
2021/10/25 05:37:49;;;;;;;23.77;9.50;;;;;;;8.42;71.18;101346.56;5052591;28;20108;-51
2021/10/25 05:40:15;;;;;;;35.72;15.10;;;;;;;8.85;68.99;101347.63;5052766;28;20036;-52
2021/10/25 05:42:41;;;;;;;30.63;16.20;;;;;;;8.91;68.40;101351.47;5052987;28;20017;-51
2021/10/25 05:45:06;;;;;;;36.33;16.13;;;;;;;9.38;66.36;101356.50;5052444;28;20036;-52
2021/10/25 05:47:32;;;;;;;27.27;12.77;;;;;;;9.54;66.36;101353.94;5052491;28;20047;-51
2021/10/25 05:49:58;;;;;;;22.20;11.23;;;;;;;9.82;64.89;101358.22;5052914;28;20500;-51
2021/10/25 05:52:24;;;;;;;42.40;13.27;;;;;;;10.07;65.39;101352.03;5052532;28;20448;-50
2021/10/25 05:54:50;;;;;;;22.80;10.90;;;;;;;10.50;62.23;101354.66;5052391;28;20025;-51
2021/10/25 05:57:17;;;;;;;23.25;11.75;;;;;;;11.03;60.64;101360.53;5052870;28;20116;-52
2021/10/25 05:59:44;;;;;;;30.95;13.30;;;;;;;11.05;60.40;101362.03;5051510;28;20106;-51
2021/10/25 06:02:25;;;;;;;28.45;13.52;;;;;;;10.88;60.54;101363.84;5052425;28;20025;-51
2021/10/25 06:04:51;;;;;;;23.73;12.27;;;;;;;11.18;59.71;101364.19;5052516;28;20021;-48
2021/10/25 06:07:16;;;;;;;22.13;11.85;;;;;;;11.05;59.28;101348.69;5051705;28;20453;-50
2021/10/25 06:09:44;;;;;;;23.75;11.82;;;;;;;11.31;59.40;101377.84;5052790;28;20041;-47
2021/10/25 06:12:14;;;;;;;23.30;12.25;;;;;;;11.44;59.09;101387.13;5051740;28;20045;-50
2021/10/25 06:14:42;;;;;;;25.17;12.23;;;;;;;11.46;59.20;101387.78;5051224;28;20025;-50
2021/10/25 06:17:51;;;;;;;28.53;12.10;;;;;;;11.60;58.50;101386.28;5051832;28;20485;-50
2021/10/25 06:20:00;;;;;;;25.27;12.07;;;;;;;11.53;58.17;101386.13;5049129;28;20091;-50
2021/10/25 06:22:28;;;;;;;19.83;12.07;;;;;;;11.68;57.25;101381.75;5052062;28;20028;-47
2021/10/25 06:24:53;;;;;;;27.40;13.32;;;;;;;11.84;58.27;101390.72;5052292;28;20032;-49
2021/10/25 06:27:19;;;;;;;28.30;13.35;;;;;;;11.99;56.81;101386.34;5051822;28;20021;-51
2021/10/25 06:29:44;;;;;;;23.48;13.63;;;;;;;12.28;58.00;101388.41;5051653;28;20024;-51
2021/10/25 06:32:10;;;;;;;31.98;16.35;;;;;;;12.51;56.38;101383.09;5051667;28;20106;-48
2021/10/25 06:34:40;;;;;;;23.95;14.68;;;;;;;12.77;54.67;101389.94;5051518;28;20413;-49
2021/10/25 06:37:06;;;;;;;21.15;11.73;;;;;;;13.64;52.59;101396.75;5051549;28;20477;-50
2021/10/25 06:39:38;;;;;;;22.23;11.05;;;;;;;13.71;52.01;101399.50;5052226;28;20109;-49
2021/10/25 06:42:05;;;;;;;22.27;10.73;;;;;;;13.53;52.08;101395.34;5051902;28;20020;-49
2021/10/25 06:44:32;;;;;;;27.52;10.20;;;;;;;13.55;52.06;101400.50;5051619;28;20040;-51
2021/10/25 06:46:58;;;;;;;20.05;10.07;;;;;;;13.79;51.44;101402.09;5049664;28;20052;-49
2021/10/25 06:49:24;;;;;;;20.10;10.48;;;;;;;14.22;50.46;101404.91;5051139;28;20477;-49
2021/10/25 06:51:50;;;;;;;15.68;9.55;;;;;;;14.66;49.65;101393.31;5051111;28;20024;-50
2021/10/25 06:54:15;;;;;;;18.50;10.18;;;;;;;14.48;49.65;101394.53;5050927;28;20024;-50
2021/10/25 06:56:41;;;;;;;20.13;10.30;;;;;;;14.40;50.36;101408.03;5051036;28;20103;-49
2021/10/25 06:59:06;;;;;;;18.67;9.90;;;;;;;14.35;50.42;101399.72;5050632;28;20021;-49
2021/10/25 07:01:32;;;;;;;17.33;9.60;;;;;;;14.20;50.69;101404.28;5050764;28;20455;-50
2021/10/25 07:03:57;;;;;;;16.02;9.68;;;;;;;14.38;49.84;101399.38;5050729;28;20029;-47
2021/10/25 07:06:23;;;;;;;21.10;9.05;;;;;;;14.86;49.15;101393.50;5050319;28;20048;-50
2021/10/25 07:08:49;;;;;;;21.58;9.73;;;;;;;16.09;50.42;101395.84;5050654;28;20040;-50
2021/10/25 07:11:16;;;;;;;14.35;8.38;;;;;;;15.22;47.63;101406.00;5049752;28;20037;-48
2021/10/25 07:13:46;;;;;;;15.93;9.40;;;;;;;15.32;47.44;101402.97;5050243;28;20506;-48
2021/10/25 08:07:29;;;;;;;13.90;8.60;;;;;;;15.32;45.52;101373.47;5049784;28;20130;-38
2021/10/25 08:10:02;;;;;;;13.43;7.55;;;;;;;15.19;43.98;101368.84;5049726;28;20052;-39
2021/10/25 08:12:30;;;;;;;23.38;8.00;;;;;;;15.43;44.53;101368.41;5049711;28;20033;-38
2021/10/25 08:15:02;;;;;;;16.23;6.40;;;;;;;16.27;41.45;101365.75;5049096;28;20032;-38
2021/10/25 08:17:48;;;;;;;10.52;5.63;;;;;;;15.69;42.77;101360.69;5049177;28;20180;-38
2021/10/25 08:20:13;;;;;;;11.32;5.97;;;;;;;15.10;43.53;101362.78;5035306;28;20175;-38
2021/10/25 08:22:41;;;;;;;11.32;6.05;;;;;;;15.03;44.18;101367.28;5049513;28;20410;-38
2021/10/25 08:25:07;;;;;;;8.07;4.97;;;;;;;14.49;46.02;101363.22;5049523;28;20040;-38
2021/10/25 08:27:32;;;;;;;11.60;5.00;;;;;;;14.33;45.67;101360.78;5049314;28;20029;-38
2021/10/25 08:29:58;;;;;;;7.13;4.43;;;;;;;13.85;46.69;101361.22;5049554;28;20025;-37
2021/10/25 08:40:37;;;;;;;12.18;4.68;;;;;;;13.93;46.21;101357.63;5046899;28;20180;-38
2021/10/25 08:43:03;;;;;;;13.45;5.03;;;;;;;14.07;46.16;101362.13;5046995;28;20037;-38
2021/10/25 08:45:30;;;;;;;6.70;4.25;;;;;;;13.99;46.39;101365.75;5028174;28;20128;-38
2021/10/25 08:47:57;;;;;;;9.27;4.38;;;;;;;14.18;46.89;101361.63;5036861;28;20029;-38
2021/10/25 08:50:25;;;;;;;14.32;4.95;;;;;;;14.46;44.89;101344.84;5048719;28;20025;-38
2021/10/25 08:52:50;;;;;;;13.60;4.90;;;;;;;14.26;46.15;101350.00;5049750;28;20033;-39
2021/10/25 08:55:17;;;;;;;13.10;5.18;;;;;;;14.34;46.49;101354.41;5049810;28;20405;-38
2021/10/25 08:57:42;;;;;;;8.25;5.13;;;;;;;14.87;45.76;101352.31;5049810;28;20036;-38
2021/10/25 09:00:09;;;;;;;8.90;4.80;;;;;;;14.65;45.26;101348.78;5049591;28;20066;-38
2021/10/25 09:02:35;;;;;;;14.25;5.40;;;;;;;14.47;45.17;101355.38;5049713;28;20032;-38
2021/10/25 09:05:05;;;;;;;9.13;4.93;;;;;;;14.37;45.82;101351.34;5049836;28;20409;-38
2021/10/25 09:07:31;;;;;;;11.25;4.93;;;;;;;14.71;45.47;101345.31;5049794;28;20112;-38
2021/10/25 09:09:57;;;;;;;8.20;4.47;;;;;;;14.20;45.43;101348.91;5049798;28;20163;-38
2021/10/25 09:12:22;;;;;;;8.13;4.55;;;;;;;14.33;45.02;101340.16;5049487;28;20086;-38
2021/10/25 09:14:50;;;;;;;10.88;4.70;;;;;;;14.28;45.86;101343.44;5049173;28;20032;-38
2021/10/25 09:17:16;;;;;;;8.60;5.07;;;;;;;14.26;45.55;101341.97;5049979;28;20029;-39
2021/10/25 09:19:45;;;;;;;14.00;5.13;;;;;;;14.29;46.32;101322.81;5049423;28;20094;-38
2021/10/25 09:22:16;;;;;;;10.10;4.40;;;;;;;14.71;44.17;101331.09;5049478;28;20099;-38
2021/10/25 09:24:57;;;;;;;8.63;4.30;;;;;;;15.04;43.63;101331.38;5049779;28;20025;-38
2021/10/25 09:27:50;;;;;;;9.68;4.50;;;;;;;15.57;43.13;101326.41;5049796;28;20055;-38
2021/10/25 09:30:20;;;;;;;8.02;4.40;;;;;;;14.84;42.99;101331.22;5048130;28;20045;-47
2021/10/25 09:32:46;;;;;;;;;;;;;;;14.47;43.68;101333.94;5050006;28;20060;-49
2021/10/25 09:35:22;;;;;;;10.90;4.40;;;;;;;14.41;44.40;101328.50;5052820;28;19908;-50
2021/10/25 09:38:02;;;;;;;11.13;4.63;;;;;;;14.71;43.81;101325.75;5053434;28;20199;-49
2021/10/25 09:41:34;;;;;;;9.38;4.45;;;;;;;15.20;42.05;101319.56;5053528;28;20060;-50
2021/10/25 09:51:26;;;;;;;10.70;3.65;;;;;;;15.03;40.19;101303.75;5020827;28;20450;-49
2021/10/25 09:53:59;;;;;;;8.68;3.28;;;;;;;14.80;40.46;101303.16;5043060;28;20037;-48
2021/10/25 09:56:30;;;;;;;4.47;3.20;;;;;;;14.85;40.48;101296.19;5052206;28;20021;-49
2021/10/25 09:59:08;;;;;;;5.90;3.33;;;;;;;14.71;41.95;101294.41;5049708;28;20029;-52
2021/10/25 10:01:36;;;;;;;5.75;3.08;;;;;;;14.85;41.71;101287.34;5051860;28;20426;-50
2021/10/25 10:04:01;;;;;;;14.50;4.25;;;;;;;15.78;39.77;101284.41;5050445;28;20150;-49
2021/10/25 10:06:27;;;;;;;6.45;3.20;;;;;;;15.07;40.53;101276.56;5051981;28;20473;-49
2021/10/25 10:08:52;;;;;;;8.00;3.67;;;;;;;15.11;41.11;101275.97;5050739;28;20043;-48
2021/10/25 10:11:18;;;;;;;8.18;3.90;;;;;;;15.25;41.02;101272.34;5051748;28;20087;-48
2021/10/25 10:13:44;;;;;;;5.50;3.40;;;;;;;15.36;37.37;101262.09;5051679;28;20085;-48
2021/10/25 10:16:10;;;;;;;16.63;3.88;;;;;;;15.43;38.23;101263.78;5051416;28;20030;-49
2021/10/25 10:18:35;;;;;;;7.35;3.15;;;;;;;15.28;39.97;101251.53;5051541;28;20515;-47
2021/10/25 10:21:01;;;;;;;6.15;3.22;;;;;;;15.54;39.75;101248.97;5033465;28;20029;-48
2021/10/25 10:23:26;;;;;;;6.22;3.30;;;;;;;14.54;40.66;101263.53;5033839;28;20020;-47
2021/10/25 10:25:56;;;;;;;7.30;3.13;;;;;;;14.12;41.28;101252.63;5051501;28;20409;-48
2021/10/25 10:28:51;;;;;;;8.90;3.55;;;;;;;14.38;41.00;101243.22;5051255;28;20033;-49
2021/10/25 10:31:20;;;;;;;5.18;3.13;;;;;;;14.28;40.33;101236.31;5046393;28;20528;-48
2021/10/25 10:33:52;;;;;;;4.97;3.25;;;;;;;14.23;41.22;101240.59;5051036;28;20048;-49
2021/10/25 10:36:21;;;;;;;6.40;3.10;;;;;;;15.12;40.15;101231.22;5051542;28;20025;-48
2021/10/25 10:39:08;;;;;;;5.65;3.20;;;;;;;14.97;40.61;101228.66;5050492;28;20507;-49
2021/10/25 10:41:36;;;;;;;5.90;3.38;;;;;;;15.53;38.93;101233.91;5051317;28;20029;-50
2021/10/25 10:44:09;;;;;;;9.90;4.03;;;;;;;15.62;39.74;101221.97;5051426;28;20036;-47
2021/10/25 10:46:46;;;;;;;8.52;4.72;;;;;;;15.75;39.87;101215.03;5050681;28;20032;-48
2021/10/25 10:49:38;;;;;;;8.23;3.30;;;;;;;15.72;38.62;101213.53;5051347;28;20029;-49
2021/10/25 10:57:48;;;;;;;5.25;3.28;;;;;;;15.57;36.29;101205.66;5050892;28;20116;-48
2021/10/25 11:00:07;;;;;;;7.00;3.30;;;;;;;14.97;37.32;101207.22;5050019;28;20061;-49
2021/10/25 11:02:33;;;;;;;4.50;3.00;;;;;;;14.55;38.06;101198.25;5050825;28;20056;-48
2021/10/25 11:05:07;;;;;;;5.80;3.10;;;;;;;14.86;35.93;101200.53;5050607;28;20358;-49
2021/10/25 11:07:38;;;;;;;4.65;3.10;;;;;;;14.66;36.32;101184.34;5049685;28;20025;-49
2021/10/25 11:10:03;;;;;;;7.78;3.22;;;;;;;15.03;35.56;101179.63;5053353;28;20036;-50
2021/10/25 11:12:29;;;;;;;10.45;3.38;;;;;;;15.15;35.89;101178.00;5065672;28;20021;-52
2021/10/25 11:14:56;;;;;;;7.45;3.60;;;;;;;15.11;37.52;101175.94;5070690;28;20416;-49
2021/10/25 11:17:29;;;;;;;5.55;3.30;;;;;;;15.10;37.78;101174.28;5053445;28;20028;-48
2021/10/25 11:19:57;;;;;;;6.47;3.42;;;;;;;15.40;36.62;101161.41;5054042;28;20035;-49
2021/10/25 11:22:25;;;;;;;5.43;3.40;;;;;;;14.78;38.50;101164.00;5054316;28;20035;-47
2021/10/25 11:24:53;;;;;;;6.95;3.70;;;;;;;14.99;38.62;101155.06;5051143;28;20033;-47
2021/10/25 11:27:23;;;;;;;5.68;3.30;;;;;;;15.39;37.12;101149.88;5050845;28;20037;-50
2021/10/25 11:29:48;;;;;;;6.10;3.08;;;;;;;15.48;36.87;101147.84;5050257;28;20036;-47
2021/10/25 11:32:14;;;;;;;7.80;3.28;;;;;;;15.45;36.38;101156.28;5050508;28;20056;-48
2021/10/25 11:34:44;;;;;;;5.55;3.20;;;;;;;15.41;36.35;101144.31;5050371;28;20488;-48
2021/10/25 11:37:24;;;;;;;6.03;3.35;;;;;;;15.32;36.04;101140.97;5050593;28;20044;-50
2021/10/25 11:42:22;;;;;;;8.70;3.25;;;;;;;15.22;36.51;101108.34;5050302;28;20029;-48
2021/10/25 11:44:49;;;;;;;6.00;2.90;;;;;;;15.08;36.73;101128.91;5050722;28;20033;-47
2021/10/25 11:47:22;;;;;;;5.07;3.40;;;;;;;15.30;36.27;101124.25;5050411;28;20061;-51
2021/10/25 11:49:48;;;;;;;6.78;3.75;;;;;;;14.83;37.26;101137.47;5050155;28;20504;-48
2021/10/25 11:52:13;;;;;;;6.47;3.47;;;;;;;14.88;37.80;101122.63;5050219;28;20028;-49
2021/10/25 11:54:54;;;;;;;16.58;3.83;;;;;;;15.60;35.48;101118.56;5050321;28;20029;-49
2021/10/25 11:57:21;;;;;;;8.70;3.17;;;;;;;16.31;33.91;101122.56;5049688;28;20484;-50
2021/10/25 12:00:07;;;;;;;6.18;3.13;;;;;;;15.80;34.15;101123.97;5049555;28;20396;-51
2021/10/25 12:02:33;;;;;;;4.38;2.70;;;;;;;15.74;34.44;101122.94;5050146;28;20036;-48
2021/10/25 12:04:59;;;;;;;7.80;3.00;;;;;;;15.39;33.74;101116.84;5049929;28;20536;-48
2021/10/25 12:07:24;;;;;;;6.13;3.40;;;;;;;15.74;33.72;101111.38;5049930;28;20048;-51
2021/10/25 12:10:04;;;;;;;7.03;3.60;;;;;;;16.54;31.32;101106.00;5050036;28;20033;-50
2021/10/25 12:12:29;;;;;;;6.28;3.00;;;;;;;16.48;31.86;101102.28;5049013;28;20052;-49
2021/10/25 12:15:02;;;;;;;8.57;3.00;;;;;;;16.32;31.99;101100.88;5049714;28;20032;-48
2021/10/25 12:17:32;;;;;;;5.40;3.00;;;;;;;15.79;33.45;101108.94;5049986;28;20136;-48
2021/10/25 12:19:57;;;;;;;;;;;;;;;15.75;31.96;101108.50;5050333;28;20035;-49
2021/10/25 12:22:23;;;;;;;7.00;3.05;;;;;;;15.33;33.36;101098.91;5048862;28;19908;-47
2021/10/25 12:24:50;;;;;;;5.28;2.53;;;;;;;15.25;33.21;101103.41;5050214;28;20499;-48
2021/10/25 12:27:25;;;;;;;6.53;2.75;;;;;;;15.74;31.29;101103.34;5050421;28;20420;-48
2021/10/25 12:29:58;;;;;;;3.95;2.20;;;;;;;15.40;31.20;101105.94;5049923;28;20469;-49
2021/10/25 12:32:24;;;;;;;6.22;2.70;;;;;;;14.97;32.01;101094.63;5049916;28;20443;-48
2021/10/25 12:34:57;;;;;;;4.15;2.60;;;;;;;15.28;31.76;101085.25;5049531;28;20021;-48
2021/10/25 12:37:28;;;;;;;4.38;2.60;;;;;;;15.36;31.80;101095.78;5049806;28;20488;-48
2021/10/25 12:39:56;;;;;;;4.03;2.60;;;;;;;15.04;32.61;101082.91;5050071;28;20031;-51
2021/10/25 12:42:26;;;;;;;7.22;2.80;;;;;;;14.97;33.03;101079.38;5049532;28;20029;-50
2021/10/25 12:44:55;;;;;;;5.82;2.78;;;;;;;15.01;33.22;101077.13;5048214;28;20098;-47
2021/10/25 12:47:24;;;;;;;4.95;3.00;;;;;;;15.02;33.77;101071.56;5050571;28;20375;-49
2021/10/25 12:49:55;;;;;;;7.47;2.88;;;;;;;15.79;32.53;101076.72;5048872;28;20053;-48
2021/10/25 12:52:21;;;;;;;7.50;2.70;;;;;;;15.62;31.54;101076.25;5048300;28;20103;-50
2021/10/25 12:54:46;;;;;;;5.80;2.60;;;;;;;14.65;33.64;101073.66;5048053;28;20463;-49
2021/10/25 12:57:23;;;;;;;6.68;2.97;;;;;;;14.73;34.11;101067.31;5047838;28;20385;-50
2021/10/25 13:00:09;;;;;;;5.75;2.60;;;;;;;14.91;33.43;101066.78;5047273;28;20028;-48
2021/10/25 13:02:46;;;;;;;5.20;2.40;;;;;;;14.53;32.48;101069.84;5029205;28;20029;-50
2021/10/25 13:05:20;;;;;;;4.47;2.80;;;;;;;14.60;32.64;101068.09;5029387;28;20506;-47
2021/10/25 13:07:47;;;;;;;3.95;2.40;;;;;;;14.75;33.57;101057.22;5029044;28;20029;-49
2021/10/25 13:10:13;;;;;;;5.70;2.60;;;;;;;14.72;33.30;101062.97;5032327;28;20055;-48